首页
METAR-TAF:

METAR-TAF

机场 :

弗拉季高加索, 俄罗斯

纬度: 43-12-18N, 经度: 044-36-24E, 海拔: 510米

当前天气观测

该预报发布于43分钟前的00:30 UTC
风速2节,风向西
温度 15°C
湿度 94%
气压 1018 hPa
能见度10公里或以上

METAR: URMO 310030Z AUTO 28001MPS 9999 // 15/14 Q1018 RMK QFE720/0960

时间: 04:13 (01:13 UTC)

预报

该预报发布于11小时和13分钟前的14:00 UTC
预报有效从30日的 15点(UTC)到 30日的 24点(UTC)
风速6节,风向东转东北,有时为16节阵风
能见度10公里或以上
多云层高于3000英尺

TAF: URMO 301400Z 3015/3024 06003G08MPS 9999 BKN030

超过4000个机场的气象观测和天气预报(METAR&TAF报告)。

可查询的气象台以黄色和红色小点在地图上表示。

将鼠标移到小点上方,可查看气象台名称。

然后点击查看天气观测和预报。

如需切换地图:点击带黑十字的绿色按钮放大地图;点击带横线的绿色按钮缩小地图;或者点击绿色箭头查看邻近地区的地图。


METAR-TAF: